sensor_id;sensor_type;location;lat;lon;timestamp;P1;durP1;ratioP1;P2;durP2;ratioP2
61373;SDS011;47242;48.158;-1.586;2023-02-24T05:30:24;31.80;;;12.93;;
61373;SDS011;47242;48.158;-1.586;2023-02-24T05:32:50;29.08;;;13.27;;
61373;SDS011;47242;48.158;-1.586;2023-02-24T05:35:18;27.77;;;12.05;;
61373;SDS011;47242;48.158;-1.586;2023-02-24T05:37:43;28.73;;;13.32;;
61373;SDS011;47242;48.158;-1.586;2023-02-24T05:40:09;30.10;;;12.80;;
61373;SDS011;47242;48.158;-1.586;2023-02-24T05:42:37;30.55;;;13.25;;
61373;SDS011;47242;48.158;-1.586;2023-02-24T05:45:06;27.95;;;12.52;;
61373;SDS011;47242;48.158;-1.586;2023-02-24T05:47:35;25.45;;;12.18;;
61373;SDS011;47242;48.158;-1.586;2023-02-24T05:50:01;23.95;;;11.52;;
61373;SDS011;47242;48.158;-1.586;2023-02-24T05:52:27;23.15;;;10.88;;
61373;SDS011;47242;48.158;-1.586;2023-02-24T05:54:53;29.77;;;12.48;;
61373;SDS011;47242;48.158;-1.586;2023-02-24T05:57:19;25.17;;;11.75;;
61373;SDS011;47242;48.158;-1.586;2023-02-24T05:59:47;28.95;;;11.68;;
61373;SDS011;47242;48.158;-1.586;2023-02-24T06:02:17;25.73;;;11.55;;
61373;SDS011;47242;48.158;-1.586;2023-02-24T06:04:51;26.17;;;11.43;;
61373;SDS011;47242;48.158;-1.586;2023-02-24T06:07:21;33.10;;;13.40;;
61373;SDS011;47242;48.158;-1.586;2023-02-24T06:09:50;26.02;;;12.55;;
61373;SDS011;47242;48.158;-1.586;2023-02-24T06:12:21;27.88;;;11.63;;
61373;SDS011;47242;48.158;-1.586;2023-02-24T06:14:51;27.55;;;12.93;;
61373;SDS011;47242;48.158;-1.586;2023-02-24T06:17:17;24.70;;;12.80;;
61373;SDS011;47242;48.158;-1.586;2023-02-24T06:19:44;29.02;;;13.20;;
61373;SDS011;47242;48.158;-1.586;2023-02-24T06:22:12;25.35;;;10.90;;
61373;SDS011;47242;48.158;-1.586;2023-02-24T06:24:39;26.38;;;11.85;;
61373;SDS011;47242;48.158;-1.586;2023-02-24T06:27:13;34.90;;;15.48;;
61373;SDS011;47242;48.158;-1.586;2023-02-24T06:29:43;21.75;;;10.85;;
61373;SDS011;47242;48.158;-1.586;2023-02-24T06:32:10;31.20;;;12.15;;
61373;SDS011;47242;48.158;-1.586;2023-02-24T06:34:37;27.23;;;12.73;;
61373;SDS011;47242;48.158;-1.586;2023-02-24T06:37:05;32.90;;;13.70;;
61373;SDS011;47242;48.158;-1.586;2023-02-24T06:39:34;27.23;;;13.13;;
61373;SDS011;47242;48.158;-1.586;2023-02-24T06:42:00;29.23;;;12.90;;
61373;SDS011;47242;48.158;-1.586;2023-02-24T06:44:32;24.77;;;11.20;;
61373;SDS011;47242;48.158;-1.586;2023-02-24T06:46:59;29.30;;;13.93;;
61373;SDS011;47242;48.158;-1.586;2023-02-24T06:49:26;26.98;;;12.38;;
61373;SDS011;47242;48.158;-1.586;2023-02-24T06:51:52;32.10;;;12.55;;
61373;SDS011;47242;48.158;-1.586;2023-02-24T06:54:22;24.40;;;10.73;;
61373;SDS011;47242;48.158;-1.586;2023-02-24T06:56:54;22.73;;;11.95;;
61373;SDS011;47242;48.158;-1.586;2023-02-24T06:59:23;30.88;;;12.75;;
61373;SDS011;47242;48.158;-1.586;2023-02-24T07:01:56;27.02;;;12.05;;
61373;SDS011;47242;48.158;-1.586;2023-02-24T07:04:23;38.33;;;13.10;;
61373;SDS011;47242;48.158;-1.586;2023-02-24T07:06:50;27.50;;;12.18;;
61373;SDS011;47242;48.158;-1.586;2023-02-24T07:09:20;25.17;;;12.77;;
61373;SDS011;47242;48.158;-1.586;2023-02-24T07:11:48;23.33;;;12.75;;
61373;SDS011;47242;48.158;-1.586;2023-02-24T07:14:20;24.67;;;12.45;;
61373;SDS011;47242;48.158;-1.586;2023-02-24T07:16:48;27.83;;;14.50;;
61373;SDS011;47242;48.158;-1.586;2023-02-24T07:19:18;25.05;;;12.00;;
61373;SDS011;47242;48.158;-1.586;2023-02-24T07:21:48;40.63;;;15.13;;
61373;SDS011;47242;48.158;-1.586;2023-02-24T07:24:17;26.88;;;12.32;;
61373;SDS011;47242;48.158;-1.586;2023-02-24T07:26:58;26.15;;;12.77;;
61373;SDS011;47242;48.158;-1.586;2023-02-24T07:29:26;33.45;;;13.45;;
61373;SDS011;47242;48.158;-1.586;2023-02-24T07:31:52;29.60;;;13.10;;
61373;SDS011;47242;48.158;-1.586;2023-02-24T07:34:20;38.85;;;13.93;;
61373;SDS011;47242;48.158;-1.586;2023-02-24T07:36:49;26.30;;;12.15;;
61373;SDS011;47242;48.158;-1.586;2023-02-24T07:39:18;30.35;;;13.85;;
61373;SDS011;47242;48.158;-1.586;2023-02-24T07:41:47;27.42;;;13.63;;
61373;SDS011;47242;48.158;-1.586;2023-02-24T07:44:14;30.45;;;12.88;;
61373;SDS011;47242;48.158;-1.586;2023-02-24T07:46:44;25.35;;;11.88;;
61373;SDS011;47242;48.158;-1.586;2023-02-24T07:49:10;29.40;;;12.50;;
61373;SDS011;47242;48.158;-1.586;2023-02-24T07:51:37;27.95;;;12.95;;
61373;SDS011;47242;48.158;-1.586;2023-02-24T07:54:03;26.13;;;12.40;;
61373;SDS011;47242;48.158;-1.586;2023-02-24T07:56:29;27.80;;;11.85;;
61373;SDS011;47242;48.158;-1.586;2023-02-24T07:58:58;23.25;;;10.68;;
61373;SDS011;47242;48.158;-1.586;2023-02-24T08:01:25;25.83;;;11.50;;
61373;SDS011;47242;48.158;-1.586;2023-02-24T08:03:57;28.00;;;14.10;;
61373;SDS011;47242;48.158;-1.586;2023-02-24T08:06:31;27.58;;;11.98;;
61373;SDS011;47242;48.158;-1.586;2023-02-24T08:09:05;28.52;;;11.35;;
61373;SDS011;47242;48.158;-1.586;2023-02-24T08:11:48;28.98;;;13.73;;
61373;SDS011;47242;48.158;-1.586;2023-02-24T08:14:25;32.47;;;13.55;;
61373;SDS011;47242;48.158;-1.586;2023-02-24T08:17:00;29.42;;;12.60;;
61373;SDS011;47242;48.158;-1.586;2023-02-24T08:19:30;27.55;;;12.07;;
61373;SDS011;47242;48.158;-1.586;2023-02-24T08:21:58;30.48;;;13.50;;
61373;SDS011;47242;48.158;-1.586;2023-02-24T08:24:53;20.05;;;10.15;;
61373;SDS011;47242;48.158;-1.586;2023-02-24T08:27:21;24.35;;;11.20;;
61373;SDS011;47242;48.158;-1.586;2023-02-24T08:29:58;28.65;;;11.98;;
61373;SDS011;47242;48.158;-1.586;2023-02-24T08:32:37;27.23;;;10.63;;
61373;SDS011;47242;48.158;-1.586;2023-02-24T08:35:20;25.70;;;12.65;;
61373;SDS011;47242;48.158;-1.586;2023-02-24T08:37:48;24.90;;;13.30;;
61373;SDS011;47242;48.158;-1.586;2023-02-24T08:45:49;19.55;;;9.63;;
61373;SDS011;47242;48.158;-1.586;2023-02-24T08:48:22;18.63;;;9.70;;
61373;SDS011;47242;48.158;-1.586;2023-02-24T08:51:06;20.85;;;9.73;;
61373;SDS011;47242;48.158;-1.586;2023-02-24T08:53:41;22.70;;;11.98;;
61373;SDS011;47242;48.158;-1.586;2023-02-24T08:56:09;17.92;;;9.15;;
61373;SDS011;47242;48.158;-1.586;2023-02-24T08:58:36;19.88;;;8.98;;
61373;SDS011;47242;48.158;-1.586;2023-02-24T09:01:16;17.63;;;8.77;;
61373;SDS011;47242;48.158;-1.586;2023-02-24T09:03:50;20.33;;;10.07;;
61373;SDS011;47242;48.158;-1.586;2023-02-24T09:09:12;17.88;;;9.38;;
61373;SDS011;47242;48.158;-1.586;2023-02-24T09:14:28;20.42;;;8.90;;
61373;SDS011;47242;48.158;-1.586;2023-02-24T09:17:00;17.98;;;8.50;;
61373;SDS011;47242;48.158;-1.586;2023-02-24T09:19:28;15.50;;;8.23;;
61373;SDS011;47242;48.158;-1.586;2023-02-24T09:22:25;20.63;;;9.98;;
61373;SDS011;47242;48.158;-1.586;2023-02-24T09:25:00;12.63;;;7.15;;
61373;SDS011;47242;48.158;-1.586;2023-02-24T09:28:04;11.70;;;6.90;;
61373;SDS011;47242;48.158;-1.586;2023-02-24T09:30:36;15.13;;;8.15;;
61373;SDS011;47242;48.158;-1.586;2023-02-24T09:33:25;11.57;;;5.88;;
61373;SDS011;47242;48.158;-1.586;2023-02-24T09:36:12;10.63;;;7.07;;
61373;SDS011;47242;48.158;-1.586;2023-02-24T09:38:58;11.07;;;5.63;;
61373;SDS011;47242;48.158;-1.586;2023-02-24T09:41:36;13.20;;;7.20;;
61373;SDS011;47242;48.158;-1.586;2023-02-24T09:46:59;14.45;;;7.93;;
61373;SDS011;47242;48.158;-1.586;2023-02-24T09:50:02;11.75;;;6.40;;
61373;SDS011;47242;48.158;-1.586;2023-02-24T09:52:30;13.77;;;6.60;;
61373;SDS011;47242;48.158;-1.586;2023-02-24T09:58:03;9.50;;;4.90;;
61373;SDS011;47242;48.158;-1.586;2023-02-24T10:06:46;7.25;;;4.20;;
61373;SDS011;47242;48.158;-1.586;2023-02-24T10:12:12;10.10;;;4.80;;
61373;SDS011;47242;48.158;-1.586;2023-02-24T10:15:01;9.57;;;4.82;;
61373;SDS011;47242;48.158;-1.586;2023-02-24T10:18:12;7.18;;;3.78;;
61373;SDS011;47242;48.158;-1.586;2023-02-24T10:20:51;6.85;;;3.90;;
61373;SDS011;47242;48.158;-1.586;2023-02-24T10:23:24;4.97;;;2.88;;
61373;SDS011;47242;48.158;-1.586;2023-02-24T10:26:43;8.98;;;3.95;;
61373;SDS011;47242;48.158;-1.586;2023-02-24T10:29:19;7.57;;;3.85;;
61373;SDS011;47242;48.158;-1.586;2023-02-24T10:34:50;7.00;;;3.95;;
61373;SDS011;47242;48.158;-1.586;2023-02-24T10:37:21;6.40;;;3.80;;
61373;SDS011;47242;48.158;-1.586;2023-02-24T10:39:48;13.20;;;4.70;;
61373;SDS011;47242;48.158;-1.586;2023-02-24T10:42:25;7.10;;;4.05;;
61373;SDS011;47242;48.158;-1.586;2023-02-24T10:44:51;5.72;;;4.18;;
61373;SDS011;47242;48.158;-1.586;2023-02-24T10:47:36;5.03;;;3.28;;
61373;SDS011;47242;48.158;-1.586;2023-02-24T10:50:54;8.60;;;4.05;;
61373;SDS011;47242;48.158;-1.586;2023-02-24T10:53:00;10.35;;;4.05;;
61373;SDS011;47242;48.158;-1.586;2023-02-24T10:55:30;5.47;;;3.70;;
61373;SDS011;47242;48.158;-1.586;2023-02-24T10:58:22;9.88;;;3.92;;
61373;SDS011;47242;48.158;-1.586;2023-02-24T11:03:51;9.52;;;4.18;;
61373;SDS011;47242;48.158;-1.586;2023-02-24T11:06:29;7.50;;;3.90;;
61373;SDS011;47242;48.158;-1.586;2023-02-24T11:09:05;14.43;;;4.10;;
61373;SDS011;47242;48.158;-1.586;2023-02-24T11:11:46;8.20;;;4.10;;
61373;SDS011;47242;48.158;-1.586;2023-02-24T11:14:37;7.03;;;3.58;;
61373;SDS011;47242;48.158;-1.586;2023-02-24T11:20:02;6.95;;;3.50;;
61373;SDS011;47242;48.158;-1.586;2023-02-24T11:22:36;6.55;;;4.32;;
61373;SDS011;47242;48.158;-1.586;2023-02-24T11:25:07;6.63;;;4.03;;
61373;SDS011;47242;48.158;-1.586;2023-02-24T11:27:46;10.35;;;4.72;;
61373;SDS011;47242;48.158;-1.586;2023-02-24T11:46:38;7.90;;;4.25;;
61373;SDS011;47242;48.158;-1.586;2023-02-24T11:49:04;8.73;;;3.58;;
61373;SDS011;47242;48.158;-1.586;2023-02-24T11:51:50;7.10;;;4.35;;
61373;SDS011;47242;48.158;-1.586;2023-02-24T11:54:18;6.82;;;4.47;;
61373;SDS011;47242;48.158;-1.586;2023-02-24T11:56:46;9.75;;;4.10;;
61373;SDS011;47242;48.158;-1.586;2023-02-24T12:05:09;10.85;;;4.70;;
61373;SDS011;47242;48.158;-1.586;2023-02-24T12:07:38;6.65;;;3.90;;
61373;SDS011;47242;48.158;-1.586;2023-02-24T12:10:18;8.80;;;4.35;;
61373;SDS011;47242;48.158;-1.586;2023-02-24T12:13:05;8.55;;;4.60;;
61373;SDS011;47242;48.158;-1.586;2023-02-24T12:16:01;7.45;;;3.63;;
61373;SDS011;47242;48.158;-1.586;2023-02-24T12:18:31;9.50;;;3.97;;
61373;SDS011;47242;48.158;-1.586;2023-02-24T12:23:35;6.65;;;3.90;;
61373;SDS011;47242;48.158;-1.586;2023-02-24T12:32:03;6.60;;;3.72;;
61373;SDS011;47242;48.158;-1.586;2023-02-24T12:43:31;11.82;;;5.20;;
61373;SDS011;47242;48.158;-1.586;2023-02-24T12:54:13;9.65;;;4.88;;
61373;SDS011;47242;48.158;-1.586;2023-02-24T12:56:55;11.05;;;4.60;;
61373;SDS011;47242;48.158;-1.586;2023-02-24T12:59:41;9.68;;;5.18;;
61373;SDS011;47242;48.158;-1.586;2023-02-24T13:15:32;9.40;;;4.80;;
61373;SDS011;47242;48.158;-1.586;2023-02-24T13:17:58;9.73;;;4.28;;
61373;SDS011;47242;48.158;-1.586;2023-02-24T13:20:31;10.50;;;4.63;;
61373;SDS011;47242;48.158;-1.586;2023-02-24T13:22:59;8.57;;;4.32;;
61373;SDS011;47242;48.158;-1.586;2023-02-24T13:25:32;10.18;;;4.35;;
61373;SDS011;47242;48.158;-1.586;2023-02-24T13:28:02;7.00;;;3.95;;
61373;SDS011;47242;48.158;-1.586;2023-02-24T13:30:42;10.52;;;4.45;;
61373;SDS011;47242;48.158;-1.586;2023-02-24T13:35:44;10.02;;;4.65;;
61373;SDS011;47242;48.158;-1.586;2023-02-24T13:38:22;5.43;;;3.42;;
61373;SDS011;47242;48.158;-1.586;2023-02-24T13:41:22;7.40;;;3.75;;
61373;SDS011;47242;48.158;-1.586;2023-02-24T13:46:56;10.05;;;3.65;;
61373;SDS011;47242;48.158;-1.586;2023-02-24T13:52:40;7.63;;;4.20;;
61373;SDS011;47242;48.158;-1.586;2023-02-24T14:01:13;10.00;;;3.70;;
61373;SDS011;47242;48.158;-1.586;2023-02-24T14:03:42;8.13;;;3.53;;
61373;SDS011;47242;48.158;-1.586;2023-02-24T14:06:21;6.28;;;4.10;;
61373;SDS011;47242;48.158;-1.586;2023-02-24T14:08:51;8.25;;;4.70;;
61373;SDS011;47242;48.158;-1.586;2023-02-24T14:11:24;9.23;;;4.13;;
61373;SDS011;47242;48.158;-1.586;2023-02-24T14:13:54;9.27;;;4.40;;
61373;SDS011;47242;48.158;-1.586;2023-02-24T14:16:22;8.07;;;3.30;;
61373;SDS011;47242;48.158;-1.586;2023-02-24T14:18:55;7.45;;;3.72;;
61373;SDS011;47242;48.158;-1.586;2023-02-24T14:21:23;7.13;;;3.78;;
61373;SDS011;47242;48.158;-1.586;2023-02-24T14:24:10;5.90;;;3.47;;
61373;SDS011;47242;48.158;-1.586;2023-02-24T14:26:41;6.15;;;4.32;;
61373;SDS011;47242;48.158;-1.586;2023-02-24T14:29:12;12.10;;;5.18;;
61373;SDS011;47242;48.158;-1.586;2023-02-24T14:31:45;10.93;;;4.10;;
61373;SDS011;47242;48.158;-1.586;2023-02-24T14:34:17;6.75;;;4.22;;
61373;SDS011;47242;48.158;-1.586;2023-02-24T14:36:45;5.20;;;3.67;;
61373;SDS011;47242;48.158;-1.586;2023-02-24T14:41:42;8.75;;;4.15;;
61373;SDS011;47242;48.158;-1.586;2023-02-24T14:44:27;6.78;;;3.70;;
61373;SDS011;47242;48.158;-1.586;2023-02-24T14:46:54;5.80;;;3.38;;
61373;SDS011;47242;48.158;-1.586;2023-02-24T14:49:23;7.85;;;3.70;;
61373;SDS011;47242;48.158;-1.586;2023-02-24T14:51:53;10.35;;;4.95;;
61373;SDS011;47242;48.158;-1.586;2023-02-24T14:59:41;8.50;;;3.33;;
61373;SDS011;47242;48.158;-1.586;2023-02-24T15:02:14;5.50;;;3.45;;
61373;SDS011;47242;48.158;-1.586;2023-02-24T15:04:43;7.30;;;4.53;;
61373;SDS011;47242;48.158;-1.586;2023-02-24T15:07:15;10.30;;;4.07;;
61373;SDS011;47242;48.158;-1.586;2023-02-24T15:09:44;8.32;;;3.63;;
61373;SDS011;47242;48.158;-1.586;2023-02-24T15:14:48;7.10;;;4.43;;
61373;SDS011;47242;48.158;-1.586;2023-02-24T15:17:18;10.23;;;4.57;;
61373;SDS011;47242;48.158;-1.586;2023-02-24T15:19:46;9.65;;;4.30;;
61373;SDS011;47242;48.158;-1.586;2023-02-24T15:22:31;8.35;;;4.13;;
61373;SDS011;47242;48.158;-1.586;2023-02-24T15:27:58;8.35;;;4.40;;
61373;SDS011;47242;48.158;-1.586;2023-02-24T15:30:33;6.20;;;3.42;;
61373;SDS011;47242;48.158;-1.586;2023-02-24T15:33:22;8.25;;;3.42;;
61373;SDS011;47242;48.158;-1.586;2023-02-24T15:35:49;6.20;;;2.88;;
61373;SDS011;47242;48.158;-1.586;2023-02-24T15:40:58;5.33;;;3.00;;
61373;SDS011;47242;48.158;-1.586;2023-02-24T15:48:43;8.65;;;3.13;;
61373;SDS011;47242;48.158;-1.586;2023-02-24T15:54:10;5.78;;;3.10;;
61373;SDS011;47242;48.158;-1.586;2023-02-24T15:56:36;8.35;;;2.67;;
61373;SDS011;47242;48.158;-1.586;2023-02-24T15:59:03;8.45;;;2.67;;
61373;SDS011;47242;48.158;-1.586;2023-02-24T16:01:30;5.82;;;3.08;;
61373;SDS011;47242;48.158;-1.586;2023-02-24T16:03:57;7.15;;;3.25;;
61373;SDS011;47242;48.158;-1.586;2023-02-24T16:06:23;15.15;;;3.38;;
61373;SDS011;47242;48.158;-1.586;2023-02-24T16:08:50;6.13;;;2.65;;
61373;SDS011;47242;48.158;-1.586;2023-02-24T16:11:18;3.97;;;2.08;;
61373;SDS011;47242;48.158;-1.586;2023-02-24T16:13:51;7.63;;;2.95;;
61373;SDS011;47242;48.158;-1.586;2023-02-24T16:16:24;4.95;;;2.17;;
61373;SDS011;47242;48.158;-1.586;2023-02-24T16:18:50;8.27;;;3.25;;
61373;SDS011;47242;48.158;-1.586;2023-02-24T16:21:16;11.25;;;3.05;;
61373;SDS011;47242;48.158;-1.586;2023-02-24T16:23:42;4.72;;;2.05;;
61373;SDS011;47242;48.158;-1.586;2023-02-24T16:26:15;3.13;;;2.13;;
61373;SDS011;47242;48.158;-1.586;2023-02-24T16:28:43;4.07;;;1.95;;
61373;SDS011;47242;48.158;-1.586;2023-02-24T16:31:15;4.72;;;2.88;;
61373;SDS011;47242;48.158;-1.586;2023-02-24T16:33:41;4.90;;;2.35;;
61373;SDS011;47242;48.158;-1.586;2023-02-24T16:36:11;5.22;;;2.10;;
61373;SDS011;47242;48.158;-1.586;2023-02-24T16:38:37;8.35;;;3.13;;
61373;SDS011;47242;48.158;-1.586;2023-02-24T16:41:03;7.10;;;2.95;;
61373;SDS011;47242;48.158;-1.586;2023-02-24T16:43:29;4.78;;;2.30;;
61373;SDS011;47242;48.158;-1.586;2023-02-24T16:45:59;3.30;;;2.28;;
61373;SDS011;47242;48.158;-1.586;2023-02-24T16:48:28;5.07;;;2.22;;
61373;SDS011;47242;48.158;-1.586;2023-02-24T16:50:58;5.97;;;2.33;;
61373;SDS011;47242;48.158;-1.586;2023-02-24T16:53:25;5.47;;;2.45;;
61373;SDS011;47242;48.158;-1.586;2023-02-24T16:55:51;3.22;;;1.70;;
61373;SDS011;47242;48.158;-1.586;2023-02-24T16:58:17;5.13;;;2.25;;
61373;SDS011;47242;48.158;-1.586;2023-02-24T17:00:44;3.67;;;2.35;;
61373;SDS011;47242;48.158;-1.586;2023-02-24T17:05:48;4.43;;;1.70;;
61373;SDS011;47242;48.158;-1.586;2023-02-24T17:08:14;4.45;;;2.35;;
61373;SDS011;47242;48.158;-1.586;2023-02-24T17:10:41;4.20;;;1.85;;
61373;SDS011;47242;48.158;-1.586;2023-02-24T17:13:15;2.83;;;1.70;;
61373;SDS011;47242;48.158;-1.586;2023-02-24T17:15:42;8.93;;;2.28;;
61373;SDS011;47242;48.158;-1.586;2023-02-24T17:18:08;5.00;;;2.50;;
61373;SDS011;47242;48.158;-1.586;2023-02-24T17:20:35;4.53;;;1.65;;
61373;SDS011;47242;48.158;-1.586;2023-02-24T17:23:02;6.70;;;2.30;;
61373;SDS011;47242;48.158;-1.586;2023-02-24T17:25:28;4.60;;;2.40;;
61373;SDS011;47242;48.158;-1.586;2023-02-24T17:27:55;2.78;;;1.90;;
61373;SDS011;47242;48.158;-1.586;2023-02-24T17:30:31;4.43;;;2.22;;
61373;SDS011;47242;48.158;-1.586;2023-02-24T17:33:00;3.28;;;2.30;;
61373;SDS011;47242;48.158;-1.586;2023-02-24T17:35:26;4.30;;;2.28;;
61373;SDS011;47242;48.158;-1.586;2023-02-24T17:37:52;6.10;;;2.25;;
61373;SDS011;47242;48.158;-1.586;2023-02-24T17:40:18;3.28;;;2.15;;
61373;SDS011;47242;48.158;-1.586;2023-02-24T17:42:44;7.90;;;3.13;;
61373;SDS011;47242;48.158;-1.586;2023-02-24T17:45:10;6.10;;;2.50;;
61373;SDS011;47242;48.158;-1.586;2023-02-24T17:47:37;4.85;;;2.95;;
61373;SDS011;47242;48.158;-1.586;2023-02-24T17:50:04;4.63;;;3.05;;
61373;SDS011;47242;48.158;-1.586;2023-02-24T17:52:30;10.00;;;3.22;;
61373;SDS011;47242;48.158;-1.586;2023-02-24T17:54:56;6.70;;;3.20;;
61373;SDS011;47242;48.158;-1.586;2023-02-24T17:57:22;7.28;;;4.18;;
61373;SDS011;47242;48.158;-1.586;2023-02-24T17:59:47;5.13;;;2.90;;
61373;SDS011;47242;48.158;-1.586;2023-02-24T18:02:15;9.45;;;4.03;;
61373;SDS011;47242;48.158;-1.586;2023-02-24T18:04:42;7.00;;;3.55;;
61373;SDS011;47242;48.158;-1.586;2023-02-24T18:07:08;6.82;;;3.60;;
61373;SDS011;47242;48.158;-1.586;2023-02-24T18:09:35;9.75;;;3.97;;
61373;SDS011;47242;48.158;-1.586;2023-02-24T18:12:01;6.47;;;4.32;;
61373;SDS011;47242;48.158;-1.586;2023-02-24T18:14:27;8.68;;;3.45;;
61373;SDS011;47242;48.158;-1.586;2023-02-24T18:16:53;8.23;;;4.43;;
61373;SDS011;47242;48.158;-1.586;2023-02-24T18:19:19;5.20;;;3.08;;
61373;SDS011;47242;48.158;-1.586;2023-02-24T18:21:45;9.00;;;3.70;;
61373;SDS011;47242;48.158;-1.586;2023-02-24T18:24:11;5.85;;;3.25;;
61373;SDS011;47242;48.158;-1.586;2023-02-24T18:26:36;6.13;;;2.85;;
61373;SDS011;47242;48.158;-1.586;2023-02-24T18:29:02;4.57;;;3.15;;
61373;SDS011;47242;48.158;-1.586;2023-02-24T18:31:28;6.97;;;3.35;;
61373;SDS011;47242;48.158;-1.586;2023-02-24T18:33:54;5.60;;;3.00;;
61373;SDS011;47242;48.158;-1.586;2023-02-24T18:36:21;5.80;;;2.58;;
61373;SDS011;47242;48.158;-1.586;2023-02-24T18:38:48;10.20;;;3.88;;
61373;SDS011;47242;48.158;-1.586;2023-02-24T18:41:15;4.47;;;3.13;;
61373;SDS011;47242;48.158;-1.586;2023-02-24T18:43:42;6.80;;;3.80;;
61373;SDS011;47242;48.158;-1.586;2023-02-24T18:46:12;4.82;;;3.22;;
61373;SDS011;47242;48.158;-1.586;2023-02-24T18:48:38;5.35;;;3.50;;
61373;SDS011;47242;48.158;-1.586;2023-02-24T18:51:05;9.30;;;4.03;;
61373;SDS011;47242;48.158;-1.586;2023-02-24T18:53:34;4.72;;;3.47;;
61373;SDS011;47242;48.158;-1.586;2023-02-24T18:56:34;7.80;;;3.38;;
61373;SDS011;47242;48.158;-1.586;2023-02-24T18:58:54;6.88;;;3.47;;
61373;SDS011;47242;48.158;-1.586;2023-02-24T19:01:23;9.07;;;4.47;;
61373;SDS011;47242;48.158;-1.586;2023-02-24T19:03:49;7.13;;;4.30;;
61373;SDS011;47242;48.158;-1.586;2023-02-24T19:06:16;7.60;;;4.32;;
61373;SDS011;47242;48.158;-1.586;2023-02-24T19:08:43;9.60;;;4.57;;
61373;SDS011;47242;48.158;-1.586;2023-02-24T19:11:10;9.52;;;4.40;;
61373;SDS011;47242;48.158;-1.586;2023-02-24T19:13:40;5.97;;;4.13;;
61373;SDS011;47242;48.158;-1.586;2023-02-24T19:16:07;12.35;;;5.65;;
61373;SDS011;47242;48.158;-1.586;2023-02-24T19:18:34;8.23;;;5.10;;
61373;SDS011;47242;48.158;-1.586;2023-02-24T19:21:00;10.80;;;5.32;;
61373;SDS011;47242;48.158;-1.586;2023-02-24T19:23:25;8.65;;;4.50;;
61373;SDS011;47242;48.158;-1.586;2023-02-24T19:25:51;8.60;;;4.82;;
61373;SDS011;47242;48.158;-1.586;2023-02-24T19:28:17;10.73;;;4.80;;
61373;SDS011;47242;48.158;-1.586;2023-02-24T19:30:43;11.43;;;4.72;;
61373;SDS011;47242;48.158;-1.586;2023-02-24T19:33:09;7.00;;;4.57;;
61373;SDS011;47242;48.158;-1.586;2023-02-24T19:35:38;10.52;;;5.10;;
61373;SDS011;47242;48.158;-1.586;2023-02-24T19:38:04;9.82;;;5.32;;
61373;SDS011;47242;48.158;-1.586;2023-02-24T19:40:30;9.57;;;5.40;;
61373;SDS011;47242;48.158;-1.586;2023-02-24T19:42:56;11.15;;;4.45;;
61373;SDS011;47242;48.158;-1.586;2023-02-24T19:45:22;7.80;;;5.07;;
61373;SDS011;47242;48.158;-1.586;2023-02-24T19:47:48;10.30;;;5.25;;
61373;SDS011;47242;48.158;-1.586;2023-02-24T19:50:14;7.57;;;4.43;;
61373;SDS011;47242;48.158;-1.586;2023-02-24T19:52:41;10.90;;;5.13;;
61373;SDS011;47242;48.158;-1.586;2023-02-24T19:55:07;10.95;;;5.63;;
61373;SDS011;47242;48.158;-1.586;2023-02-24T19:57:34;11.27;;;3.97;;
61373;SDS011;47242;48.158;-1.586;2023-02-24T20:00:00;13.98;;;4.60;;
61373;SDS011;47242;48.158;-1.586;2023-02-24T20:02:26;5.25;;;3.88;;
61373;SDS011;47242;48.158;-1.586;2023-02-24T20:04:53;4.43;;;3.70;;
61373;SDS011;47242;48.158;-1.586;2023-02-24T20:07:19;8.75;;;3.92;;
61373;SDS011;47242;48.158;-1.586;2023-02-24T20:09:46;9.27;;;3.90;;
61373;SDS011;47242;48.158;-1.586;2023-02-24T20:12:12;5.82;;;3.78;;
61373;SDS011;47242;48.158;-1.586;2023-02-24T20:14:37;7.00;;;4.43;;
61373;SDS011;47242;48.158;-1.586;2023-02-24T20:17:03;4.63;;;3.65;;
61373;SDS011;47242;48.158;-1.586;2023-02-24T20:19:29;6.93;;;3.97;;
61373;SDS011;47242;48.158;-1.586;2023-02-24T20:21:57;6.72;;;3.20;;
61373;SDS011;47242;48.158;-1.586;2023-02-24T20:24:23;9.00;;;3.90;;
61373;SDS011;47242;48.158;-1.586;2023-02-24T20:26:49;6.20;;;4.40;;
61373;SDS011;47242;48.158;-1.586;2023-02-24T20:29:16;9.55;;;4.22;;
61373;SDS011;47242;48.158;-1.586;2023-02-24T20:31:43;7.65;;;3.95;;
61373;SDS011;47242;48.158;-1.586;2023-02-24T20:34:10;6.45;;;3.45;;
61373;SDS011;47242;48.158;-1.586;2023-02-24T20:36:37;8.73;;;3.80;;
61373;SDS011;47242;48.158;-1.586;2023-02-24T20:39:04;7.60;;;3.95;;
61373;SDS011;47242;48.158;-1.586;2023-02-24T20:41:32;11.02;;;4.28;;
61373;SDS011;47242;48.158;-1.586;2023-02-24T20:43:58;4.97;;;3.97;;
61373;SDS011;47242;48.158;-1.586;2023-02-24T20:46:25;8.70;;;3.83;;
61373;SDS011;47242;48.158;-1.586;2023-02-24T20:49:02;6.32;;;2.92;;
61373;SDS011;47242;48.158;-1.586;2023-02-24T20:51:30;9.07;;;3.88;;
61373;SDS011;47242;48.158;-1.586;2023-02-24T20:53:58;5.70;;;3.75;;
61373;SDS011;47242;48.158;-1.586;2023-02-24T20:56:27;5.13;;;4.32;;
61373;SDS011;47242;48.158;-1.586;2023-02-24T20:59:00;9.68;;;4.55;;
61373;SDS011;47242;48.158;-1.586;2023-02-24T21:01:31;10.02;;;4.63;;
61373;SDS011;47242;48.158;-1.586;2023-02-24T21:03:58;7.95;;;6.15;;
61373;SDS011;47242;48.158;-1.586;2023-02-24T21:06:25;11.32;;;4.63;;
61373;SDS011;47242;48.158;-1.586;2023-02-24T21:08:51;11.27;;;4.60;;
61373;SDS011;47242;48.158;-1.586;2023-02-24T21:11:17;9.23;;;4.30;;
61373;SDS011;47242;48.158;-1.586;2023-02-24T21:13:45;12.48;;;4.57;;
61373;SDS011;47242;48.158;-1.586;2023-02-24T21:16:12;9.38;;;4.90;;
61373;SDS011;47242;48.158;-1.586;2023-02-24T21:18:42;9.05;;;4.35;;
61373;SDS011;47242;48.158;-1.586;2023-02-24T21:21:09;11.60;;;4.82;;
61373;SDS011;47242;48.158;-1.586;2023-02-24T21:23:36;11.80;;;5.18;;
61373;SDS011;47242;48.158;-1.586;2023-02-24T21:26:04;12.90;;;5.82;;
61373;SDS011;47242;48.158;-1.586;2023-02-24T21:28:30;7.88;;;4.60;;
61373;SDS011;47242;48.158;-1.586;2023-02-24T21:30:56;9.48;;;4.32;;
61373;SDS011;47242;48.158;-1.586;2023-02-24T21:33:22;9.65;;;5.47;;
61373;SDS011;47242;48.158;-1.586;2023-02-24T21:36:01;10.23;;;5.78;;
61373;SDS011;47242;48.158;-1.586;2023-02-24T21:38:30;7.30;;;5.05;;
61373;SDS011;47242;48.158;-1.586;2023-02-24T21:40:58;9.50;;;6.45;;
61373;SDS011;47242;48.158;-1.586;2023-02-24T21:43:25;9.00;;;5.38;;
61373;SDS011;47242;48.158;-1.586;2023-02-24T21:45:51;10.45;;;5.88;;
61373;SDS011;47242;48.158;-1.586;2023-02-24T21:48:17;10.55;;;6.30;;
61373;SDS011;47242;48.158;-1.586;2023-02-24T21:50:43;10.88;;;5.72;;
61373;SDS011;47242;48.158;-1.586;2023-02-24T21:53:09;9.07;;;5.68;;
61373;SDS011;47242;48.158;-1.586;2023-02-24T21:55:37;8.68;;;5.68;;
61373;SDS011;47242;48.158;-1.586;2023-02-24T21:58:04;8.10;;;5.43;;
61373;SDS011;47242;48.158;-1.586;2023-02-24T22:00:30;10.38;;;6.00;;
61373;SDS011;47242;48.158;-1.586;2023-02-24T22:02:57;9.65;;;6.13;;
61373;SDS011;47242;48.158;-1.586;2023-02-24T22:05:23;8.95;;;5.60;;
61373;SDS011;47242;48.158;-1.586;2023-02-24T22:07:49;8.45;;;6.18;;
61373;SDS011;47242;48.158;-1.586;2023-02-24T22:10:17;8.38;;;6.15;;
61373;SDS011;47242;48.158;-1.586;2023-02-24T22:12:45;8.90;;;5.75;;
61373;SDS011;47242;48.158;-1.586;2023-02-24T22:15:11;10.80;;;6.03;;
61373;SDS011;47242;48.158;-1.586;2023-02-24T22:17:38;11.95;;;5.18;;
61373;SDS011;47242;48.158;-1.586;2023-02-24T22:20:05;14.23;;;6.15;;
61373;SDS011;47242;48.158;-1.586;2023-02-24T22:22:37;10.40;;;6.22;;
61373;SDS011;47242;48.158;-1.586;2023-02-24T22:25:04;14.93;;;6.47;;
61373;SDS011;47242;48.158;-1.586;2023-02-24T22:27:34;8.82;;;5.65;;
